Time;durP1;ratioP1;P1;durP2;ratioP2;P2;SDS_P1;SDS_P2;PMS_P1;PMS_P2;Temp;Humidity;BMP_temperature;BMP_pressure;BME280_temperature;BME280_humidity;BME280_pressure;Samples;Min_cycle;Max_cycle;Signal;HPM_P1;HPM_P2
2023/08/07 00:02:02;;;;;;;25.30;10.25;;;12.80;99.90;;;;;;4972949;28;21165;-73
2023/08/07 00:04:29;;;;;;;28.25;11.02;;;12.80;99.90;;;;;;4968447;28;20061;-72
2023/08/07 00:06:56;;;;;;;23.88;11.13;;;12.70;99.90;;;;;;4974342;28;20066;-71
2023/08/07 00:09:23;;;;;;;29.20;9.98;;;12.80;99.90;;;;;;4966534;28;20070;-70
2023/08/07 00:11:50;;;;;;;28.42;11.10;;;12.70;99.90;;;;;;4966168;28;20844;-71
2023/08/07 00:14:16;;;;;;;27.15;11.20;;;12.70;99.90;;;;;;4971255;28;20114;-70
2023/08/07 00:16:44;;;;;;;30.42;11.05;;;12.70;99.90;;;;;;4969807;28;20038;-69
2023/08/07 00:19:11;;;;;;;35.72;11.10;;;12.70;99.90;;;;;;4968052;28;20062;-72
2023/08/07 00:21:38;;;;;;;27.67;11.73;;;12.70;99.90;;;;;;4968170;28;20043;-72
2023/08/07 00:24:05;;;;;;;32.13;11.25;;;12.70;99.90;;;;;;4970051;28;20391;-72
2023/08/07 00:26:32;;;;;;;34.75;13.07;;;12.70;99.90;;;;;;4970235;28;20070;-72
2023/08/07 00:28:59;;;;;;;36.63;12.63;;;12.70;99.90;;;;;;4970075;28;20046;-71
2023/08/07 00:31:26;;;;;;;38.20;12.98;;;12.80;99.90;;;;;;4968603;28;20074;-70
2023/08/07 00:33:54;;;;;;;36.40;12.60;;;12.80;99.90;;;;;;4955581;28;20034;-69
2023/08/07 00:36:22;;;;;;;29.05;11.77;;;12.70;99.90;;;;;;4963366;28;20039;-70
2023/08/07 00:38:50;;;;;;;37.47;13.23;;;12.80;99.90;;;;;;4966065;28;20061;-72
2023/08/07 00:41:18;;;;;;;35.28;13.00;;;12.80;99.90;;;;;;4964501;28;20042;-70
2023/08/07 00:43:45;;;;;;;29.08;12.43;;;12.80;99.90;;;;;;4970513;28;20513;-69
2023/08/07 00:46:12;;;;;;;37.67;12.43;;;12.80;99.90;;;;;;4970489;28;20472;-72
2023/08/07 00:48:39;;;;;;;38.58;13.55;;;12.70;99.90;;;;;;4986510;28;20054;-69
2023/08/07 00:51:07;;;;;;;49.35;13.55;;;12.70;99.90;;;;;;4966559;28;20038;-70
2023/08/07 00:53:38;;;;;;;49.08;17.02;;;12.70;99.90;;;;;;4971670;28;20104;-69
2023/08/07 00:56:05;;;;;;;56.20;16.23;;;12.60;99.90;;;;;;4967659;28;20047;-72
2023/08/07 00:58:32;;;;;;;57.47;15.82;;;12.70;99.90;;;;;;4982333;28;20765;-69
2023/08/07 01:00:59;;;;;;;56.67;16.00;;;12.70;99.90;;;;;;4967723;28;20043;-70
2023/08/07 01:03:26;;;;;;;89.47;18.50;;;12.70;99.90;;;;;;4969712;28;20129;-69
2023/08/07 01:05:53;;;;;;;94.28;20.55;;;12.60;99.90;;;;;;4970801;28;20044;-70
2023/08/07 01:08:20;;;;;;;57.92;18.13;;;12.60;99.90;;;;;;4967059;28;20666;-70
2023/08/07 01:11:20;;;;;;;58.88;16.80;;;12.70;99.90;;;;;;4972274;28;20054;-70
2023/08/07 01:13:59;;;;;;;89.20;20.05;;;12.70;99.90;;;;;;4970286;28;20065;-72
2023/08/07 01:16:37;;;;;;;55.03;18.15;;;12.70;99.90;;;;;;4968263;28;20080;-69
2023/08/07 01:19:14;;;;;;;47.55;15.77;;;12.70;99.90;;;;;;4963987;28;20561;-71
2023/08/07 01:21:45;;;;;;;54.88;16.42;;;12.60;99.90;;;;;;4984682;28;20034;-72
2023/08/07 01:24:12;;;;;;;59.80;17.60;;;12.70;99.90;;;;;;4966807;28;20046;-70
2023/08/07 01:26:38;;;;;;;55.33;16.05;;;12.70;99.90;;;;;;4970360;28;20121;-70
2023/08/07 01:29:17;;;;;;;59.40;16.83;;;12.70;99.90;;;;;;4970601;28;20046;-70
2023/08/07 01:31:46;;;;;;;53.13;15.45;;;12.70;99.90;;;;;;4972866;28;20046;-69
2023/08/07 01:34:18;;;;;;;39.85;13.80;;;12.70;99.90;;;;;;4972118;28;20099;-71
2023/08/07 01:36:47;;;;;;;41.20;13.60;;;12.70;99.90;;;;;;4973304;28;20578;-71
2023/08/07 01:39:14;;;;;;;33.97;12.43;;;12.70;99.90;;;;;;4967581;28;20050;-72
2023/08/07 01:41:41;;;;;;;35.75;11.95;;;12.60;99.90;;;;;;4984935;28;20116;-69
2023/08/07 01:44:08;;;;;;;17.55;7.18;;;12.60;99.90;;;;;;4974662;28;20098;-69
2023/08/07 01:46:35;;;;;;;17.33;7.13;;;12.60;99.90;;;;;;4988570;28;20050;-69
2023/08/07 01:49:02;;;;;;;11.02;5.30;;;12.70;99.90;;;;;;4973240;28;20054;-69
2023/08/07 01:51:29;;;;;;;10.80;4.95;;;12.70;99.90;;;;;;4970641;28;20038;-69
2023/08/07 01:53:55;;;;;;;13.43;5.38;;;12.70;99.90;;;;;;4971770;28;20108;-71
2023/08/07 01:56:22;;;;;;;21.42;7.13;;;12.70;99.90;;;;;;4970947;28;20146;-71
2023/08/07 01:58:49;;;;;;;22.73;8.57;;;12.60;99.90;;;;;;4972262;28;20109;-71
2023/08/07 02:01:15;;;;;;;28.98;9.30;;;12.70;99.90;;;;;;4969745;28;20157;-70
2023/08/07 02:03:42;;;;;;;39.97;12.93;;;12.70;99.90;;;;;;4976611;28;20042;-71
2023/08/07 02:06:09;;;;;;;37.03;10.57;;;12.60;99.90;;;;;;4973088;28;20045;-72
2023/08/07 02:08:36;;;;;;;40.53;10.82;;;12.60;99.90;;;;;;4968065;28;20042;-70
2023/08/07 02:11:03;;;;;;;45.60;12.98;;;12.60;99.90;;;;;;4984036;28;20902;-70
2023/08/07 02:13:29;;;;;;;45.83;11.93;;;12.60;99.90;;;;;;4970130;28;20057;-70
2023/08/07 02:15:56;;;;;;;68.38;14.10;;;12.60;99.90;;;;;;4974813;28;20042;-69
2023/08/07 02:18:23;;;;;;;78.28;14.38;;;12.60;99.90;;;;;;4965970;28;20569;-70
2023/08/07 02:20:51;;;;;;;66.68;16.05;;;12.60;99.90;;;;;;4956963;28;20143;-69
2023/08/07 02:23:18;;;;;;;50.33;13.23;;;12.70;99.90;;;;;;4962146;28;20058;-71
2023/08/07 02:25:45;;;;;;;56.75;15.25;;;12.60;99.90;;;;;;4972221;28;20046;-70
2023/08/07 02:28:13;;;;;;;49.67;12.93;;;12.60;99.90;;;;;;4969790;28;20713;-69
2023/08/07 02:30:40;;;;;;;71.95;16.52;;;12.60;99.90;;;;;;4987964;28;20054;-69
2023/08/07 02:33:06;;;;;;;72.22;16.90;;;12.60;99.90;;;;;;4974446;28;20048;-70
2023/08/07 02:35:33;;;;;;;61.28;15.02;;;12.70;99.90;;;;;;4971771;28;20074;-70
2023/08/07 02:38:00;;;;;;;98.75;18.50;;;12.60;99.90;;;;;;4969517;28;20133;-70
2023/08/07 02:40:27;;;;;;;66.85;15.18;;;12.60;99.90;;;;;;4956693;28;20053;-70
2023/08/07 02:42:54;;;;;;;65.50;14.65;;;12.60;99.90;;;;;;4969605;28;20641;-70
2023/08/07 02:45:20;;;;;;;49.42;12.10;;;12.60;99.90;;;;;;4970364;28;20389;-70
2023/08/07 02:47:47;;;;;;;68.53;16.30;;;12.60;99.90;;;;;;4965702;28;20124;-69
2023/08/07 02:50:14;;;;;;;86.38;17.20;;;12.60;99.90;;;;;;4956767;28;20093;-69
2023/08/07 02:52:41;;;;;;;73.47;17.35;;;12.70;99.90;;;;;;4971726;28;20116;-71
2023/08/07 02:55:11;;;;;;;66.32;16.90;;;12.60;99.90;;;;;;4971679;28;20614;-70
2023/08/07 02:57:38;;;;;;;64.50;16.17;;;12.60;99.90;;;;;;4967382;28;20094;-70
2023/08/07 03:00:06;;;;;;;59.92;15.70;;;12.60;99.90;;;;;;4975579;28;20066;-72
2023/08/07 03:02:32;;;;;;;69.15;17.42;;;12.60;99.90;;;;;;4970640;28;20050;-71
2023/08/07 03:04:59;;;;;;;156.70;22.35;;;12.60;99.90;;;;;;4973087;28;20049;-72
2023/08/07 03:07:26;;;;;;;70.57;17.75;;;12.70;99.90;;;;;;4964873;28;20038;-73
2023/08/07 03:09:53;;;;;;;71.18;18.52;;;12.70;99.90;;;;;;4975038;28;20516;-71
2023/08/07 03:12:20;;;;;;;77.10;19.35;;;12.70;99.90;;;;;;4967485;28;20042;-71
2023/08/07 03:14:47;;;;;;;64.07;17.17;;;12.70;99.90;;;;;;4988635;28;20046;-72
2023/08/07 03:17:13;;;;;;;59.88;18.05;;;12.70;99.90;;;;;;4970155;28;20069;-71
2023/08/07 03:19:42;;;;;;;69.13;18.38;;;12.70;99.90;;;;;;4978130;28;20048;-70
2023/08/07 03:22:11;;;;;;;54.33;17.48;;;12.70;99.90;;;;;;4986927;28;20430;-70
2023/08/07 03:24:38;;;;;;;56.28;18.45;;;12.70;99.90;;;;;;4980245;28;20058;-70
2023/08/07 03:27:05;;;;;;;51.38;17.65;;;12.70;99.90;;;;;;4969454;28;20089;-70
2023/08/07 03:29:32;;;;;;;58.95;17.83;;;12.70;99.90;;;;;;4968867;28;20046;-71
2023/08/07 03:31:59;;;;;;;59.80;18.50;;;12.80;99.90;;;;;;4974584;28;20073;-70
2023/08/07 03:34:26;;;;;;;60.65;18.90;;;12.70;99.90;;;;;;4970674;28;20704;-71
2023/08/07 03:36:52;;;;;;;72.40;21.10;;;12.70;99.90;;;;;;4967825;28;20423;-70
2023/08/07 03:39:19;;;;;;;55.83;20.25;;;12.70;99.90;;;;;;4967287;28;20659;-70
2023/08/07 03:41:46;;;;;;;62.63;18.48;;;12.70;99.90;;;;;;4969166;28;20064;-72
2023/08/07 03:44:13;;;;;;;79.20;20.90;;;12.70;99.90;;;;;;4969457;28;20050;-73
2023/08/07 03:46:40;;;;;;;73.90;20.52;;;12.70;99.90;;;;;;4969407;28;20053;-72
2023/08/07 03:49:07;;;;;;;67.07;20.92;;;12.80;99.90;;;;;;4974359;28;20050;-71
2023/08/07 03:51:33;;;;;;;65.60;20.88;;;12.70;99.90;;;;;;4985883;28;20050;-71
2023/08/07 03:54:00;;;;;;;63.65;21.45;;;12.80;99.90;;;;;;4973056;28;20046;-72
2023/08/07 03:56:27;;;;;;;59.03;21.60;;;12.80;99.90;;;;;;4955627;28;20116;-72
2023/08/07 03:58:54;;;;;;;74.57;22.40;;;12.80;99.90;;;;;;4973342;28;20512;-72
2023/08/07 04:01:24;;;;;;;64.18;21.15;;;12.80;99.90;;;;;;4970289;28;20050;-71
2023/08/07 04:03:50;;;;;;;61.13;20.77;;;12.80;99.90;;;;;;4974695;28;20072;-72
2023/08/07 04:06:18;;;;;;;63.58;21.65;;;12.80;99.90;;;;;;4966427;28;20552;-72
2023/08/07 04:08:45;;;;;;;65.30;22.27;;;12.80;99.90;;;;;;4972451;28;20121;-71
2023/08/07 04:11:12;;;;;;;68.80;21.10;;;12.80;99.90;;;;;;4967139;28;20062;-72
2023/08/07 04:13:39;;;;;;;78.82;24.40;;;12.80;99.90;;;;;;4950065;28;20038;-72
2023/08/07 04:16:06;;;;;;;86.03;26.33;;;12.90;99.90;;;;;;4968558;28;20054;-72
2023/08/07 04:18:33;;;;;;;74.43;24.67;;;12.90;99.90;;;;;;4955672;28;20159;-72
2023/08/07 04:21:02;;;;;;;76.65;24.58;;;12.80;99.90;;;;;;4972449;28;20108;-72
2023/08/07 04:23:29;;;;;;;78.10;25.77;;;12.90;99.90;;;;;;4969898;28;20751;-72
2023/08/07 04:25:55;;;;;;;90.00;26.25;;;12.90;99.90;;;;;;4972989;28;20069;-72
2023/08/07 04:28:24;;;;;;;95.88;26.73;;;12.90;99.90;;;;;;4963047;28;20047;-71
2023/08/07 04:30:51;;;;;;;64.60;22.55;;;12.90;99.90;;;;;;4971900;28;20050;-71
2023/08/07 04:33:20;;;;;;;77.93;24.20;;;13.00;99.90;;;;;;4973383;28;20046;-70
2023/08/07 04:35:47;;;;;;;62.67;20.38;;;13.00;99.90;;;;;;4970072;28;20104;-70
2023/08/07 04:38:15;;;;;;;61.95;19.52;;;12.90;99.90;;;;;;4968751;28;20243;-70
2023/08/07 04:40:50;;;;;;;58.75;20.20;;;12.90;99.90;;;;;;4967347;28;20053;-71
2023/08/07 04:43:18;;;;;;;64.75;21.60;;;12.90;99.90;;;;;;4966514;28;20563;-70
2023/08/07 04:45:47;;;;;;;49.72;19.42;;;12.90;99.90;;;;;;4971091;28;20105;-71
2023/08/07 04:48:15;;;;;;;50.35;20.30;;;12.90;99.90;;;;;;4973032;28;20141;-70
2023/08/07 04:50:42;;;;;;;45.13;18.88;;;12.90;99.90;;;;;;4955088;28;20105;-70
2023/08/07 04:53:09;;;;;;;43.50;18.13;;;13.00;99.90;;;;;;4973199;28;20129;-71
2023/08/07 04:55:35;;;;;;;40.95;17.30;;;12.90;99.90;;;;;;4969111;28;20050;-71
2023/08/07 04:58:02;;;;;;;36.15;15.43;;;12.90;99.90;;;;;;4974037;28;20142;-71
2023/08/07 05:00:29;;;;;;;36.00;15.98;;;12.90;99.90;;;;;;4978938;28;20121;-71
2023/08/07 05:02:56;;;;;;;31.92;14.77;;;12.80;99.90;;;;;;4971783;28;20046;-71
2023/08/07 05:05:23;;;;;;;35.85;14.63;;;12.80;99.90;;;;;;4968066;28;20042;-71
2023/08/07 05:07:50;;;;;;;36.22;13.52;;;12.80;99.90;;;;;;4991751;28;20766;-70
2023/08/07 05:10:17;;;;;;;26.38;12.75;;;12.80;99.90;;;;;;4972046;28;20035;-70
2023/08/07 05:12:44;;;;;;;22.67;10.25;;;12.80;99.90;;;;;;4952668;28;20050;-71
2023/08/07 05:15:10;;;;;;;22.05;10.40;;;12.70;99.90;;;;;;4987384;28;20042;-71
2023/08/07 05:17:37;;;;;;;28.33;12.52;;;12.80;99.90;;;;;;4967959;28;20711;-71
2023/08/07 05:20:05;;;;;;;31.95;14.98;;;12.70;99.90;;;;;;4972904;28;20085;-71
2023/08/07 05:22:32;;;;;;;28.52;13.65;;;12.70;99.90;;;;;;4971162;28;20046;-71
2023/08/07 05:24:59;;;;;;;28.48;12.68;;;12.70;99.90;;;;;;4978327;28;20046;-71
2023/08/07 05:27:26;;;;;;;25.42;12.95;;;12.70;99.90;;;;;;4970338;28;20050;-70
2023/08/07 05:29:53;;;;;;;29.10;12.85;;;12.70;99.90;;;;;;4989892;28;20133;-70
2023/08/07 05:32:20;;;;;;;26.45;10.50;;;12.70;99.90;;;;;;4974272;28;20108;-70
2023/08/07 05:34:47;;;;;;;21.77;10.60;;;12.70;99.90;;;;;;4983021;28;20136;-70
2023/08/07 05:37:13;;;;;;;18.98;9.07;;;12.70;99.90;;;;;;4975553;28;20836;-70
2023/08/07 05:39:40;;;;;;;22.30;10.70;;;12.70;99.90;;;;;;4969335;28;20054;-69
2023/08/07 05:42:08;;;;;;;22.30;10.65;;;12.80;99.90;;;;;;4970444;28;20046;-70
2023/08/07 05:44:34;;;;;;;24.95;10.48;;;12.80;99.90;;;;;;4970046;28;20047;-70
2023/08/07 05:47:02;;;;;;;24.25;10.52;;;12.80;99.90;;;;;;4976767;28;20126;-70
2023/08/07 05:49:28;;;;;;;22.17;10.23;;;12.80;99.90;;;;;;4968653;28;20589;-69
2023/08/07 05:51:55;;;;;;;21.38;10.57;;;12.80;99.90;;;;;;4975865;28;20043;-70
2023/08/07 05:54:22;;;;;;;23.48;12.40;;;12.80;99.90;;;;;;4974227;28;20126;-70
2023/08/07 05:56:49;;;;;;;21.80;10.57;;;12.80;99.90;;;;;;4969358;28;20105;-70
2023/08/07 05:59:15;;;;;;;26.70;11.73;;;12.80;99.90;;;;;;4971838;28;20058;-70
2023/08/07 06:01:42;;;;;;;22.73;11.50;;;12.80;99.90;;;;;;4966005;28;20547;-69
2023/08/07 06:04:09;;;;;;;22.25;11.73;;;12.80;99.90;;;;;;4973395;28;20154;-70
2023/08/07 06:06:37;;;;;;;24.67;12.45;;;12.90;99.90;;;;;;4967832;28;20052;-71
2023/08/07 06:09:04;;;;;;;23.58;11.25;;;12.90;99.90;;;;;;4978025;28;20050;-70
2023/08/07 06:11:31;;;;;;;19.80;9.13;;;12.90;99.90;;;;;;4968366;28;20042;-71
2023/08/07 06:13:58;;;;;;;20.13;8.85;;;12.90;99.90;;;;;;4976973;28;20054;-71
2023/08/07 06:16:25;;;;;;;27.15;11.52;;;12.90;99.90;;;;;;4972645;28;20051;-71
2023/08/07 06:18:52;;;;;;;20.48;10.68;;;12.90;99.90;;;;;;4977572;28;20054;-71
2023/08/07 06:21:20;;;;;;;24.75;11.65;;;12.90;99.90;;;;;;4976081;28;20057;-71
2023/08/07 06:23:47;;;;;;;24.55;11.70;;;12.90;99.90;;;;;;4970567;28;20050;-70
2023/08/07 06:26:14;;;;;;;22.63;11.43;;;12.90;99.90;;;;;;4974925;28;20050;-71
2023/08/07 06:28:42;;;;;;;26.58;13.93;;;12.90;99.90;;;;;;4966322;28;20057;-71
2023/08/07 06:31:10;;;;;;;34.72;15.45;;;12.90;99.90;;;;;;4978485;28;20042;-70
2023/08/07 06:33:37;;;;;;;35.20;15.40;;;12.90;99.90;;;;;;4970598;28;20057;-71
2023/08/07 06:36:04;;;;;;;23.55;12.13;;;13.00;99.90;;;;;;4975249;28;20050;-71
2023/08/07 06:38:31;;;;;;;27.95;13.52;;;13.00;99.90;;;;;;4966611;28;20122;-71
2023/08/07 06:40:57;;;;;;;26.33;12.32;;;13.00;99.90;;;;;;4966062;28;20054;-71
2023/08/07 06:43:24;;;;;;;20.45;11.32;;;13.00;99.90;;;;;;4968730;28;20050;-70
2023/08/07 06:45:54;;;;;;;16.73;9.48;;;13.00;99.90;;;;;;4974520;28;20109;-71
2023/08/07 06:48:20;;;;;;;18.85;10.63;;;13.00;99.90;;;;;;4975748;28;20062;-72
2023/08/07 06:50:48;;;;;;;18.50;9.82;;;13.00;99.90;;;;;;4967712;28;20465;-72
2023/08/07 06:53:15;;;;;;;15.23;9.32;;;13.00;99.90;;;;;;4973696;28;20063;-72
2023/08/07 06:55:42;;;;;;;15.25;8.95;;;13.00;99.90;;;;;;4969439;28;20125;-72
2023/08/07 06:58:10;;;;;;;16.33;7.25;;;12.90;99.90;;;;;;4980301;28;20046;-72
2023/08/07 07:00:37;;;;;;;12.32;7.18;;;12.90;99.90;;;;;;4968075;28;20035;-70
2023/08/07 07:03:04;;;;;;;11.07;7.20;;;12.90;99.90;;;;;;4972781;28;20418;-69
2023/08/07 07:05:32;;;;;;;9.73;5.75;;;12.90;99.90;;;;;;4974303;28;20054;-74
2023/08/07 07:07:59;;;;;;;12.85;6.78;;;12.90;99.90;;;;;;4971975;28;20069;-70
2023/08/07 07:10:26;;;;;;;12.23;5.70;;;12.90;99.90;;;;;;4972249;28;22322;-70
2023/08/07 07:12:53;;;;;;;16.80;7.13;;;12.90;99.90;;;;;;4963039;28;20433;-70
2023/08/07 07:15:20;;;;;;;11.90;6.30;;;12.90;99.90;;;;;;4971022;28;20311;-70
2023/08/07 07:17:47;;;;;;;9.45;5.35;;;12.90;99.90;;;;;;4969672;28;20059;-70
2023/08/07 07:20:14;;;;;;;11.93;5.82;;;12.90;99.90;;;;;;4966874;28;20093;-70
2023/08/07 07:22:40;;;;;;;11.20;6.80;;;12.80;99.90;;;;;;4969021;28;20629;-72
2023/08/07 07:25:08;;;;;;;14.82;7.15;;;12.80;99.90;;;;;;4964394;28;20104;-72
2023/08/07 07:27:34;;;;;;;13.45;7.97;;;12.80;99.90;;;;;;4963587;28;20051;-71
2023/08/07 07:30:01;;;;;;;21.52;9.07;;;12.80;99.90;;;;;;4974252;28;20054;-72
2023/08/07 07:32:28;;;;;;;19.25;7.57;;;12.80;99.90;;;;;;4976431;28;20085;-72
2023/08/07 07:34:55;;;;;;;16.50;8.48;;;12.80;99.90;;;;;;4971759;28;20049;-72
2023/08/07 07:37:22;;;;;;;12.85;7.85;;;12.70;99.90;;;;;;4971758;28;20735;-72
2023/08/07 07:39:49;;;;;;;19.83;8.75;;;12.90;99.90;;;;;;4960997;28;20050;-71
2023/08/07 07:42:15;;;;;;;20.08;9.32;;;12.80;99.90;;;;;;4969784;28;20046;-72
2023/08/07 07:44:42;;;;;;;16.52;10.25;;;12.90;99.90;;;;;;4969188;28;20038;-72
2023/08/07 07:47:09;;;;;;;19.92;9.80;;;12.90;99.90;;;;;;4975098;28;20501;-72
2023/08/07 07:49:44;;;;;;;19.05;9.73;;;12.80;99.90;;;;;;4965999;28;20073;-72
2023/08/07 07:52:10;;;;;;;20.58;9.88;;;12.80;99.90;;;;;;4970945;28;20092;-72
2023/08/07 07:54:37;;;;;;;18.38;10.15;;;12.90;99.90;;;;;;4968624;28;20097;-72
2023/08/07 07:57:04;;;;;;;15.65;9.10;;;12.80;99.90;;;;;;4971720;28;20045;-72
2023/08/07 07:59:31;;;;;;;14.40;8.73;;;12.80;99.90;;;;;;4979284;28;20038;-72
2023/08/07 08:01:58;;;;;;;19.65;9.77;;;12.90;99.90;;;;;;4991217;28;20069;-72
2023/08/07 08:04:25;;;;;;;22.15;8.90;;;12.90;99.90;;;;;;4992170;28;20049;-72
2023/08/07 08:06:52;;;;;;;14.38;9.38;;;12.90;99.90;;;;;;4975863;28;20075;-72
2023/08/07 08:09:18;;;;;;;17.52;9.77;;;12.90;99.90;;;;;;4974731;28;20148;-73
2023/08/07 08:11:45;;;;;;;14.80;8.60;;;12.90;99.90;;;;;;4967215;28;20042;-72
2023/08/07 08:14:12;;;;;;;23.50;11.38;;;12.90;99.90;;;;;;4976064;28;20516;-72
2023/08/07 08:16:38;;;;;;;17.75;10.50;;;12.90;99.90;;;;;;4972443;28;20054;-72
2023/08/07 08:19:08;;;;;;;26.98;10.63;;;12.80;99.90;;;;;;4965117;28;20038;-72
2023/08/07 08:21:34;;;;;;;20.48;10.35;;;12.80;99.90;;;;;;4972126;28;20546;-71
2023/08/07 08:24:01;;;;;;;22.42;10.80;;;12.90;99.90;;;;;;4975772;28;20073;-72
2023/08/07 08:26:28;;;;;;;18.45;11.63;;;13.00;99.90;;;;;;4975418;28;20050;-72
2023/08/07 08:28:55;;;;;;;19.65;10.68;;;13.00;99.90;;;;;;4968884;28;20755;-72
2023/08/07 08:31:23;;;;;;;16.65;10.77;;;13.10;99.90;;;;;;4970707;28;20034;-73
2023/08/07 08:33:50;;;;;;;19.77;11.32;;;13.20;99.90;;;;;;4970408;28;20046;-72
2023/08/07 08:36:17;;;;;;;19.67;10.40;;;13.10;99.90;;;;;;4971618;28;20038;-74
2023/08/07 08:38:45;;;;;;;17.98;11.65;;;13.20;99.90;;;;;;4964219;28;20097;-70
2023/08/07 08:41:12;;;;;;;20.48;10.32;;;13.20;99.90;;;;;;4966848;28;20046;-73
2023/08/07 08:43:41;;;;;;;21.33;11.18;;;13.20;99.90;;;;;;4970137;28;20100;-71
2023/08/07 08:46:09;;;;;;;20.50;11.48;;;13.20;99.90;;;;;;4955821;28;20632;-72
2023/08/07 08:48:40;;;;;;;23.67;11.35;;;13.20;99.90;;;;;;4984850;28;20608;-71
2023/08/07 08:51:08;;;;;;;19.35;11.55;;;13.20;99.90;;;;;;4974128;28;20043;-72
2023/08/07 08:53:35;;;;;;;16.17;10.38;;;13.20;99.90;;;;;;4970365;28;20867;-72
2023/08/07 08:56:02;;;;;;;18.70;9.95;;;13.20;99.90;;;;;;4971826;28;20038;-72
2023/08/07 08:58:29;;;;;;;16.23;11.30;;;13.30;99.90;;;;;;4971193;28;20050;-72
2023/08/07 09:00:56;;;;;;;22.45;11.60;;;13.40;99.90;;;;;;4966225;28;20150;-72
2023/08/07 09:03:24;;;;;;;18.10;10.13;;;13.40;99.90;;;;;;4974086;28;20752;-72
2023/08/07 09:05:54;;;;;;;21.83;11.40;;;13.50;99.90;;;;;;4969640;28;20042;-71
2023/08/07 09:08:25;;;;;;;19.75;11.15;;;13.70;99.90;;;;;;4955630;28;20273;-72
2023/08/07 09:10:52;;;;;;;15.48;9.10;;;13.80;99.90;;;;;;4967553;28;20039;-72
2023/08/07 09:13:23;;;;;;;14.48;9.73;;;13.80;99.90;;;;;;4966316;28;20494;-72
2023/08/07 09:15:52;;;;;;;21.33;10.35;;;13.80;99.90;;;;;;4969109;28;20042;-72
2023/08/07 09:18:20;;;;;;;15.25;11.20;;;13.70;99.90;;;;;;4964689;28;20113;-72
2023/08/07 09:20:48;;;;;;;16.77;9.25;;;14.00;99.90;;;;;;4966910;28;20042;-73
2023/08/07 09:23:16;;;;;;;11.82;9.55;;;14.00;99.90;;;;;;4972620;28;20033;-72
2023/08/07 09:25:44;;;;;;;16.67;11.02;;;14.00;99.90;;;;;;4968131;28;20122;-72
2023/08/07 09:28:11;;;;;;;17.05;11.15;;;13.90;99.90;;;;;;4982723;28;20326;-72
2023/08/07 09:30:39;;;;;;;19.70;10.25;;;13.90;99.90;;;;;;4973016;28;20074;-73
2023/08/07 09:33:06;;;;;;;14.57;10.00;;;13.80;99.90;;;;;;4972144;28;20057;-70
2023/08/07 09:35:33;;;;;;;16.33;10.45;;;13.80;99.90;;;;;;4973188;28;20047;-72
2023/08/07 09:38:01;;;;;;;15.25;9.13;;;14.00;99.90;;;;;;4969277;28;20038;-72
2023/08/07 09:40:29;;;;;;;18.33;9.63;;;14.00;99.90;;;;;;4966725;28;20042;-72
2023/08/07 09:42:55;;;;;;;14.23;9.38;;;14.00;99.90;;;;;;4968156;28;20049;-72
2023/08/07 09:45:24;;;;;;;14.27;9.05;;;14.00;99.90;;;;;;4972433;28;20129;-73
2023/08/07 09:47:57;;;;;;;18.00;10.75;;;14.00;99.90;;;;;;4970016;28;20521;-71
2023/08/07 09:50:24;;;;;;;21.27;10.40;;;14.10;99.90;;;;;;4965414;28;20046;-71
2023/08/07 09:52:52;;;;;;;18.73;10.52;;;14.00;99.90;;;;;;4964776;28;20533;-71
2023/08/07 09:55:19;;;;;;;16.38;8.88;;;14.20;99.90;;;;;;4975979;28;20105;-71
2023/08/07 09:57:45;;;;;;;18.73;10.02;;;14.20;99.90;;;;;;4969465;28;20043;-71
2023/08/07 10:00:15;;;;;;;13.95;9.23;;;14.20;99.90;;;;;;4974807;28;20049;-71
2023/08/07 10:02:42;;;;;;;21.35;10.95;;;14.20;99.90;;;;;;4968390;28;20133;-71
2023/08/07 10:05:10;;;;;;;18.83;7.38;;;14.40;99.90;;;;;;4974692;28;20046;-71
2023/08/07 10:07:38;;;;;;;16.55;6.18;;;14.60;99.90;;;;;;4971398;28;20505;-71
2023/08/07 10:10:06;;;;;;;14.15;6.78;;;15.00;99.90;;;;;;4968418;28;20889;-71
2023/08/07 10:12:33;;;;;;;13.95;5.95;;;15.20;99.90;;;;;;4968108;28;20178;-71
2023/08/07 10:15:01;;;;;;;15.80;5.90;;;15.30;99.90;;;;;;4971276;28;20686;-71
2023/08/07 10:17:29;;;;;;;19.90;7.47;;;15.30;99.90;;;;;;4969264;28;20054;-73
2023/08/07 10:19:57;;;;;;;18.15;6.50;;;15.20;99.90;;;;;;4980303;28;20054;-71
2023/08/07 10:22:26;;;;;;;11.55;4.65;;;15.00;99.90;;;;;;4979336;28;20074;-71
2023/08/07 10:24:56;;;;;;;5.90;3.38;;;14.50;99.90;;;;;;4961240;28;20046;-71
2023/08/07 10:27:25;;;;;;;7.72;3.17;;;14.30;99.90;;;;;;4954297;28;20055;-71
2023/08/07 10:29:53;;;;;;;9.15;3.30;;;14.20;99.90;;;;;;4969484;28;20044;-70
2023/08/07 10:32:22;;;;;;;6.20;3.42;;;14.10;99.90;;;;;;4974154;28;20042;-71
2023/08/07 10:34:50;;;;;;;6.43;3.55;;;14.10;99.90;;;;;;4964699;28;20096;-70
2023/08/07 10:37:43;;;;;;;7.18;3.58;;;14.30;99.90;;;;;;4968428;28;20135;-71
2023/08/07 10:40:12;;;;;;;17.02;3.63;;;14.70;99.90;;;;;;4967408;28;20544;-71
2023/08/07 10:42:58;;;;;;;5.18;3.63;;;14.80;99.90;;;;;;4970788;28;20050;-71
2023/08/07 10:45:27;;;;;;;13.05;4.35;;;14.80;99.90;;;;;;4974315;28;20043;-71
2023/08/07 10:48:13;;;;;;;7.00;3.38;;;15.20;99.90;;;;;;4968905;28;20631;-71
2023/08/07 10:50:51;;;;;;;11.07;5.72;;;15.30;99.90;;;;;;4965250;28;20050;-72
2023/08/07 10:53:20;;;;;;;10.52;6.95;;;15.30;99.90;;;;;;4990386;28;20128;-72
2023/08/07 10:55:48;;;;;;;9.98;5.70;;;15.40;99.90;;;;;;4970096;28;20643;-72
2023/08/07 10:58:25;;;;;;;10.35;6.22;;;15.50;99.90;;;;;;4987742;28;20059;-72
2023/08/07 11:01:16;;;;;;;8.60;7.70;;;15.40;99.90;;;;;;4968735;28;20064;-72
2023/08/07 11:03:43;;;;;;;10.48;7.00;;;15.10;99.90;;;;;;4988008;28;20046;-71
2023/08/07 11:06:11;;;;;;;15.50;6.57;;;14.80;99.90;;;;;;4971745;28;20699;-71
2023/08/07 11:08:38;;;;;;;11.77;4.93;;;14.50;99.90;;;;;;4972911;28;20497;-71
2023/08/07 11:11:06;;;;;;;8.95;5.03;;;14.30;99.90;;;;;;4964664;28;20061;-71
2023/08/07 11:13:33;;;;;;;10.73;4.15;;;14.30;99.90;;;;;;4971258;28;20054;-71
2023/08/07 11:16:01;;;;;;;11.65;4.82;;;14.60;99.90;;;;;;4966112;28;20101;-72
2023/08/07 11:18:30;;;;;;;8.57;3.97;;;14.90;99.90;;;;;;4963094;28;20100;-73
2023/08/07 11:20:57;;;;;;;13.82;4.78;;;15.20;99.90;;;;;;4967586;28;20046;-72
2023/08/07 11:23:25;;;;;;;8.73;5.00;;;15.10;99.90;;;;;;4970783;28;20054;-72
2023/08/07 11:25:52;;;;;;;10.70;5.30;;;15.00;99.90;;;;;;4969791;28;20057;-73
2023/08/07 11:28:20;;;;;;;10.35;5.50;;;14.90;99.90;;;;;;4965965;28;20503;-72
2023/08/07 11:30:53;;;;;;;9.35;5.40;;;14.90;99.90;;;;;;4973161;28;20050;-72
2023/08/07 11:33:21;;;;;;;6.38;3.90;;;15.00;99.90;;;;;;4972337;28;20054;-71
2023/08/07 11:35:48;;;;;;;9.15;5.70;;;14.90;99.90;;;;;;4965156;28;20077;-73
2023/08/07 11:38:30;;;;;;;8.45;4.90;;;14.70;99.90;;;;;;4970512;28;20050;-72
2023/08/07 11:40:59;;;;;;;10.85;6.25;;;14.70;99.90;;;;;;4965886;28;20053;-72
2023/08/07 11:43:33;;;;;;;10.32;5.47;;;14.40;99.90;;;;;;4967396;28;20074;-72
2023/08/07 11:46:05;;;;;;;9.73;4.97;;;14.60;99.90;;;;;;4964631;28;20046;-71
2023/08/07 11:48:37;;;;;;;13.52;5.68;;;15.00;99.90;;;;;;4974259;28;20046;-72
2023/08/07 11:51:05;;;;;;;14.05;6.45;;;15.30;99.90;;;;;;4964720;28;20050;-72
2023/08/07 11:53:39;;;;;;;10.60;6.47;;;15.50;99.90;;;;;;4984585;28;20043;-72
2023/08/07 11:56:10;;;;;;;9.60;8.68;;;15.70;99.90;;;;;;4967868;28;20034;-72
2023/08/07 11:58:39;;;;;;;13.25;10.68;;;15.50;99.90;;;;;;4966684;28;20653;-71
2023/08/07 12:01:09;;;;;;;9.95;8.90;;;15.00;99.90;;;;;;4967957;28;20046;-72
2023/08/07 12:03:39;;;;;;;11.88;9.75;;;14.60;99.90;;;;;;4967759;28;20492;-71
2023/08/07 12:06:08;;;;;;;10.05;5.95;;;14.30;99.90;;;;;;4967791;28;20052;-73
2023/08/07 12:08:40;;;;;;;11.15;6.05;;;14.30;99.90;;;;;;4966355;28;20059;-72
2023/08/07 12:11:11;;;;;;;7.88;6.10;;;14.20;99.90;;;;;;4961837;28;20046;-71
2023/08/07 12:13:40;;;;;;;8.75;6.82;;;14.20;99.90;;;;;;4973035;28;20047;-71
2023/08/07 12:16:08;;;;;;;9.95;6.50;;;14.20;99.90;;;;;;4967822;28;20038;-72
2023/08/07 12:18:38;;;;;;;10.65;7.70;;;14.30;99.90;;;;;;4965866;28;20046;-72
2023/08/07 12:21:06;;;;;;;16.75;8.60;;;14.20;99.90;;;;;;4955642;28;20106;-71
2023/08/07 12:23:35;;;;;;;13.80;12.48;;;14.10;99.90;;;;;;4972595;28;20046;-72
2023/08/07 12:26:03;;;;;;;13.63;12.32;;;13.80;99.90;;;;;;4965574;28;20563;-71
2023/08/07 12:28:29;;;;;;;13.38;11.43;;;13.90;99.90;;;;;;4969062;28;20046;-71
2023/08/07 12:30:56;;;;;;;13.95;12.45;;;14.00;99.90;;;;;;4968753;28;20770;-73
2023/08/07 12:33:23;;;;;;;13.32;12.00;;;14.20;99.90;;;;;;4969224;28;20049;-73
2023/08/07 12:35:53;;;;;;;17.48;13.98;;;14.40;99.90;;;;;;4970202;28;20058;-71